createdAt,value
2024-04-30T00:21:25.512Z,14.54
2024-04-30T00:43:57.863Z,14.25
2024-04-30T01:06:29.826Z,14.10
2024-04-30T01:29:01.853Z,14.14
2024-04-30T01:51:33.746Z,14.19
2024-04-30T02:14:05.684Z,14.00
2024-04-30T02:36:37.550Z,13.72
2024-04-30T02:59:09.522Z,13.38
2024-04-30T03:21:41.472Z,13.03
2024-04-30T03:44:13.351Z,12.76
2024-04-30T04:06:45.324Z,12.54
2024-04-30T04:29:17.293Z,12.64
2024-04-30T04:51:49.235Z,13.52
2024-04-30T05:14:21.672Z,14.24
2024-04-30T05:36:53.806Z,14.99
2024-04-30T05:59:25.705Z,15.90
2024-04-30T06:21:57.583Z,17.48
2024-04-30T06:44:29.985Z,17.30
2024-04-30T07:07:02.585Z,17.36
2024-04-30T07:29:34.646Z,18.30
2024-04-30T07:52:06.819Z,18.99
2024-04-30T08:14:38.719Z,22.33
2024-04-30T08:37:11.696Z,22.50
2024-04-30T08:59:43.734Z,21.17
2024-04-30T09:22:15.854Z,21.20
2024-04-30T09:44:51.249Z,20.96
2024-04-30T10:07:26.140Z,22.08
2024-04-30T10:29:58.023Z,23.73
2024-04-30T10:52:29.967Z,31.07
2024-04-30T11:15:06.347Z,30.51
2024-04-30T11:37:39.340Z,29.25
2024-04-30T12:00:11.967Z,34.81
2024-04-30T12:22:44.744Z,37.91
2024-04-30T12:45:17.516Z,37.68
2024-04-30T13:07:49.566Z,33.12
2024-04-30T13:30:21.547Z,32.90
2024-04-30T13:52:53.433Z,32.44
2024-04-30T14:15:25.370Z,32.74
2024-04-30T14:37:57.401Z,32.16
2024-04-30T15:00:29.253Z,32.60
2024-04-30T15:23:01.118Z,32.62
2024-04-30T15:45:33.266Z,31.15
2024-04-30T16:08:06.009Z,29.32
2024-04-30T16:30:37.887Z,26.80
2024-04-30T16:53:10.374Z,25.97
2024-04-30T17:15:42.449Z,25.16
2024-04-30T17:38:14.337Z,23.92
2024-04-30T18:00:46.326Z,23.53
2024-04-30T18:23:18.315Z,22.48
2024-04-30T18:45:50.278Z,21.54
2024-04-30T19:08:22.459Z,20.81
2024-04-30T19:30:54.851Z,19.93
2024-04-30T19:53:26.991Z,19.53
2024-04-30T20:16:00.241Z,18.82
2024-04-30T20:38:32.829Z,18.37
2024-04-30T21:01:05.021Z,17.95
2024-04-30T21:23:38.914Z,17.24
2024-04-30T21:46:11.730Z,16.79
2024-04-30T22:08:43.797Z,16.36
2024-04-30T22:31:15.692Z,15.91
2024-04-30T22:53:51.092Z,15.51
2024-04-30T23:16:27.331Z,15.20
2024-04-30T23:38:59.575Z,14.92
